createdAt,value
2017-03-27T00:05:28.368Z,5.64
2017-03-27T00:08:22.383Z,5.62
2017-03-27T00:14:10.275Z,5.57
2017-03-27T00:17:04.354Z,5.55
2017-03-27T00:19:58.397Z,5.52
2017-03-27T00:22:52.474Z,5.50
2017-03-27T00:25:46.529Z,5.46
2017-03-27T00:28:41.470Z,5.44
2017-03-27T00:31:34.424Z,5.42
2017-03-27T00:34:28.369Z,5.41
2017-03-27T00:37:22.441Z,5.41
2017-03-27T00:40:16.647Z,5.41
2017-03-27T00:43:10.635Z,5.37
2017-03-27T00:51:52.688Z,5.24
2017-03-27T00:54:46.726Z,5.19
2017-03-27T00:57:40.708Z,5.16
2017-03-27T01:00:34.695Z,5.13
2017-03-27T01:03:28.634Z,5.09
2017-03-27T01:06:22.717Z,5.07
2017-03-27T01:09:16.550Z,5.04
2017-03-27T01:12:10.454Z,5.02
2017-03-27T01:15:04.444Z,4.99
2017-03-27T01:17:58.412Z,4.96
2017-03-27T01:20:52.238Z,4.94
2017-03-27T01:23:46.149Z,4.91
2017-03-27T01:26:40.264Z,4.87
2017-03-27T01:29:34.315Z,4.84
2017-03-27T01:35:22.310Z,4.80
2017-03-27T01:38:16.300Z,4.76
2017-03-27T01:41:10.346Z,4.75
2017-03-27T01:46:58.122Z,4.70
2017-03-27T01:49:52.143Z,4.67
2017-03-27T01:55:39.978Z,4.62
2017-03-27T01:58:33.993Z,4.58
2017-03-27T02:04:22.056Z,4.52
2017-03-27T02:07:15.821Z,4.49
2017-03-27T02:10:09.764Z,4.47
2017-03-27T02:15:57.540Z,4.41
2017-03-27T02:18:51.364Z,4.37
2017-03-27T02:21:45.260Z,4.34
2017-03-27T02:24:39.174Z,4.32
2017-03-27T02:27:33.051Z,4.30
2017-03-27T02:30:26.959Z,4.29
2017-03-27T02:33:20.748Z,4.27
2017-03-27T02:36:14.706Z,4.24
2017-03-27T02:39:08.445Z,4.21
2017-03-27T02:42:02.355Z,4.17
2017-03-27T02:44:56.133Z,4.15
2017-03-27T02:47:50.870Z,4.13
2017-03-27T02:50:43.614Z,4.10
2017-03-27T02:56:31.339Z,4.06
2017-03-27T03:05:12.887Z,3.98
2017-03-27T03:08:06.702Z,3.96
2017-03-27T03:11:00.411Z,3.94
2017-03-27T03:16:48.035Z,3.90
2017-03-27T03:19:41.954Z,3.88
2017-03-27T03:22:35.770Z,3.86
2017-03-27T03:25:29.566Z,3.83
2017-03-27T03:28:23.686Z,3.83
2017-03-27T03:31:17.519Z,3.82
2017-03-27T03:34:11.179Z,3.78
2017-03-27T03:37:04.942Z,3.76
2017-03-27T03:39:58.774Z,3.74
2017-03-27T03:45:46.499Z,3.69
2017-03-27T03:51:34.191Z,3.67
2017-03-27T03:54:28.014Z,3.66
2017-03-27T03:57:22.005Z,3.63
2017-03-27T04:00:15.940Z,3.61
2017-03-27T04:03:09.660Z,3.60
2017-03-27T04:11:51.054Z,3.55
2017-03-27T04:14:44.908Z,3.55
2017-03-27T04:17:38.557Z,3.54
2017-03-27T04:20:32.264Z,3.53
2017-03-27T04:26:19.734Z,3.49
2017-03-27T04:32:08.273Z,3.48
2017-03-27T04:35:01.047Z,3.46
2017-03-27T04:37:54.921Z,3.44
2017-03-27T04:40:48.744Z,3.43
2017-03-27T04:43:42.492Z,3.42
2017-03-27T04:46:36.405Z,3.41
2017-03-27T04:49:30.200Z,3.41
2017-03-27T04:52:24.017Z,3.41
2017-03-27T04:55:17.799Z,3.44
2017-03-27T04:58:11.652Z,3.47
2017-03-27T05:03:59.432Z,3.55
2017-03-27T05:06:53.358Z,3.60
2017-03-27T05:09:47.160Z,3.64
2017-03-27T05:12:41.097Z,3.70
2017-03-27T05:21:22.825Z,3.93
2017-03-27T05:24:16.761Z,4.02
2017-03-27T05:27:10.710Z,4.66
2017-03-27T05:30:04.524Z,5.59
2017-03-27T05:32:58.468Z,5.74
2017-03-27T05:35:52.378Z,5.68
2017-03-27T05:41:40.419Z,5.94
2017-03-27T05:44:34.442Z,6.38
2017-03-27T05:47:28.416Z,7.79
2017-03-27T05:50:22.466Z,9.42
2017-03-27T05:56:10.698Z,9.27
2017-03-27T05:59:04.736Z,8.99
2017-03-27T06:07:46.867Z,8.76
2017-03-27T06:10:41.075Z,9.20
2017-03-27T06:13:35.083Z,10.52
2017-03-27T06:16:29.165Z,10.78
2017-03-27T06:22:18.560Z,10.73
2017-03-27T06:25:11.753Z,11.39
2017-03-27T06:28:06.059Z,12.09
2017-03-27T06:31:00.415Z,13.11
2017-03-27T06:33:54.870Z,15.77
2017-03-27T06:36:49.446Z,18.95
2017-03-27T06:39:44.340Z,21.48
2017-03-27T06:42:39.315Z,23.19
2017-03-27T06:45:34.414Z,24.57
2017-03-27T06:48:29.410Z,25.54
2017-03-27T06:51:24.550Z,26.05
2017-03-27T06:54:19.574Z,26.35
2017-03-27T06:57:14.988Z,26.62
2017-03-27T07:00:10.395Z,26.69
2017-03-27T07:03:05.670Z,26.55
2017-03-27T07:06:00.968Z,26.49
2017-03-27T07:08:56.399Z,26.35
2017-03-27T07:11:51.614Z,25.72
2017-03-27T07:14:46.947Z,25.32
2017-03-27T07:17:41.915Z,24.97
2017-03-27T07:20:37.081Z,24.36
2017-03-27T07:23:32.224Z,23.66
2017-03-27T07:29:22.536Z,23.62
2017-03-27T07:32:17.819Z,24.06
2017-03-27T07:35:13.128Z,24.29
2017-03-27T07:38:08.465Z,24.63
2017-03-27T07:41:03.902Z,24.74
2017-03-27T07:43:59.600Z,25.01
2017-03-27T07:46:55.176Z,25.18
2017-03-27T07:49:50.737Z,25.49
2017-03-27T07:52:46.216Z,25.97
2017-03-27T07:55:41.629Z,26.27
2017-03-27T07:58:37.311Z,26.67
2017-03-27T08:01:32.877Z,26.98
2017-03-27T08:04:28.465Z,27.35
2017-03-27T08:07:23.980Z,27.46
2017-03-27T08:10:19.584Z,27.57
2017-03-27T08:13:15.402Z,27.79
2017-03-27T08:16:10.975Z,28.17
2017-03-27T08:19:06.482Z,28.22
2017-03-27T08:22:02.010Z,28.37
2017-03-27T08:24:57.484Z,28.31
2017-03-27T08:27:53.036Z,28.46
2017-03-27T08:33:43.801Z,28.80
2017-03-27T08:36:39.306Z,28.86
2017-03-27T08:39:34.694Z,28.54
2017-03-27T08:42:30.540Z,28.55
2017-03-27T08:45:26.249Z,28.47
2017-03-27T08:48:21.917Z,28.24
2017-03-27T08:51:17.342Z,28.28
2017-03-27T08:54:12.957Z,28.42
2017-03-27T08:57:08.666Z,28.61
2017-03-27T09:00:04.280Z,28.66
2017-03-27T09:02:59.911Z,28.58
2017-03-27T09:05:55.511Z,29.13
2017-03-27T09:08:51.123Z,29.19
2017-03-27T09:11:46.913Z,29.38
2017-03-27T09:14:42.484Z,29.71
2017-03-27T09:17:38.041Z,30.00
2017-03-27T09:20:33.440Z,30.40
2017-03-27T09:23:28.870Z,31.00
2017-03-27T09:26:24.353Z,31.67
2017-03-27T09:29:19.549Z,32.16
2017-03-27T09:32:14.259Z,31.82
2017-03-27T09:38:04.023Z,33.70
2017-03-27T09:40:58.887Z,34.44
2017-03-27T09:43:53.498Z,34.36
2017-03-27T09:46:48.331Z,34.67
2017-03-27T09:49:43.133Z,34.43
2017-03-27T09:52:38.337Z,34.62
2017-03-27T09:55:32.643Z,34.07
2017-03-27T09:58:27.500Z,32.22
2017-03-27T10:01:22.407Z,30.53
2017-03-27T10:04:17.600Z,30.02
2017-03-27T10:07:12.661Z,31.28
2017-03-27T10:10:07.609Z,33.17
2017-03-27T10:13:02.506Z,33.25
2017-03-27T10:15:57.776Z,32.49
2017-03-27T10:18:52.857Z,33.70
2017-03-27T10:21:48.146Z,35.38
2017-03-27T10:24:43.211Z,36.35
2017-03-27T10:27:37.465Z,35.65
2017-03-27T10:30:31.162Z,32.13
2017-03-27T10:33:25.072Z,28.74
2017-03-27T10:36:19.074Z,26.03
2017-03-27T10:39:13.103Z,24.24
2017-03-27T10:42:07.261Z,23.07
2017-03-27T10:45:01.653Z,22.02
2017-03-27T10:50:50.175Z,20.58
2017-03-27T10:53:44.472Z,20.19
2017-03-27T10:56:39.171Z,19.80
2017-03-27T10:59:33.657Z,19.49
2017-03-27T11:02:28.228Z,19.24
2017-03-27T11:05:22.762Z,19.05
2017-03-27T11:08:17.228Z,18.86
2017-03-27T11:11:11.803Z,18.64
2017-03-27T11:14:06.431Z,18.52
2017-03-27T11:17:01.113Z,18.30
2017-03-27T11:19:55.440Z,18.14
2017-03-27T11:22:49.966Z,18.04
2017-03-27T11:25:44.526Z,18.02
2017-03-27T11:28:38.973Z,17.97
2017-03-27T11:31:33.332Z,17.82
2017-03-27T11:34:27.734Z,17.68
2017-03-27T11:37:22.175Z,17.59
2017-03-27T11:40:16.541Z,17.50
2017-03-27T11:43:10.920Z,17.44
2017-03-27T11:46:05.259Z,17.35
2017-03-27T11:48:59.651Z,17.31
2017-03-27T11:51:54.058Z,17.29
2017-03-27T11:54:48.441Z,17.31
2017-03-27T11:57:42.917Z,17.32
2017-03-27T12:00:37.127Z,17.29
2017-03-27T12:03:31.481Z,17.28
2017-03-27T12:06:25.967Z,17.27
2017-03-27T12:09:20.309Z,17.25
2017-03-27T12:12:14.738Z,17.24
2017-03-27T12:15:09.115Z,17.23
2017-03-27T12:18:03.451Z,17.19
2017-03-27T12:20:57.945Z,17.09
2017-03-27T12:23:52.339Z,17.09
2017-03-27T12:26:46.769Z,17.14
2017-03-27T12:29:41.253Z,17.15
2017-03-27T12:32:35.688Z,17.12
2017-03-27T12:35:30.005Z,17.11
2017-03-27T12:38:24.386Z,17.10
2017-03-27T12:41:18.763Z,17.09
2017-03-27T12:44:13.238Z,17.10
2017-03-27T12:47:07.723Z,17.10
2017-03-27T12:50:02.165Z,17.11
2017-03-27T12:52:56.549Z,17.10
2017-03-27T12:55:51.166Z,17.13
2017-03-27T12:58:45.629Z,17.18
2017-03-27T13:01:40.213Z,17.20
2017-03-27T13:04:34.628Z,17.22
2017-03-27T13:07:29.171Z,17.26
2017-03-27T13:10:23.687Z,17.26
2017-03-27T13:13:18.182Z,17.28
2017-03-27T13:16:12.852Z,17.28
2017-03-27T13:19:07.258Z,17.33
2017-03-27T13:22:01.706Z,17.36
2017-03-27T13:24:56.015Z,17.38
2017-03-27T13:27:50.496Z,17.38
2017-03-27T13:30:44.769Z,17.37
2017-03-27T13:33:39.164Z,17.42
2017-03-27T13:36:33.586Z,17.44
2017-03-27T13:39:28.095Z,17.50
2017-03-27T13:42:22.428Z,17.53
2017-03-27T13:45:16.922Z,17.52
2017-03-27T13:48:11.370Z,17.50
2017-03-27T13:51:05.719Z,17.54
2017-03-27T13:54:00.216Z,17.59
2017-03-27T13:56:54.552Z,17.59
2017-03-27T13:59:48.863Z,17.58
2017-03-27T14:02:43.127Z,17.59
2017-03-27T14:05:37.617Z,17.60
2017-03-27T14:08:32.117Z,17.59
2017-03-27T14:11:26.570Z,17.60
2017-03-27T14:14:21.002Z,17.61
2017-03-27T14:17:15.475Z,17.62
2017-03-27T14:20:09.940Z,17.67
2017-03-27T14:23:04.351Z,17.67
2017-03-27T14:25:58.767Z,17.64
2017-03-27T14:28:53.251Z,17.65
2017-03-27T14:31:47.681Z,17.67
2017-03-27T14:37:36.623Z,17.66
2017-03-27T14:40:31.074Z,17.64
2017-03-27T14:43:25.513Z,17.62
2017-03-27T14:46:19.901Z,17.62
2017-03-27T14:49:14.369Z,17.62
2017-03-27T14:52:08.851Z,17.61
2017-03-27T14:55:03.417Z,17.58
2017-03-27T14:57:57.975Z,17.56
2017-03-27T15:00:52.183Z,17.56
2017-03-27T15:03:46.546Z,17.58
2017-03-27T15:06:40.950Z,17.59
2017-03-27T15:09:35.279Z,17.59
2017-03-27T15:12:29.896Z,17.64
2017-03-27T15:15:24.301Z,17.68
2017-03-27T15:18:18.757Z,17.70
2017-03-27T15:21:13.224Z,17.67
2017-03-27T15:24:07.847Z,17.64
2017-03-27T15:27:02.240Z,17.64
2017-03-27T15:29:56.765Z,17.64
2017-03-27T15:32:51.104Z,17.65
2017-03-27T15:35:45.530Z,17.65
2017-03-27T15:38:40.001Z,17.67
2017-03-27T15:41:34.459Z,17.68
2017-03-27T15:44:28.935Z,17.65
2017-03-27T15:47:23.286Z,17.61
2017-03-27T15:50:17.720Z,17.58
2017-03-27T15:53:12.033Z,17.56
2017-03-27T15:56:06.575Z,17.53
2017-03-27T15:59:00.956Z,17.51
2017-03-27T16:01:55.466Z,17.50
2017-03-27T16:04:49.897Z,17.47
2017-03-27T16:07:44.253Z,17.46
2017-03-27T16:10:38.797Z,17.42
2017-03-27T16:13:33.052Z,17.38
2017-03-27T16:16:27.551Z,17.33
2017-03-27T16:19:22.000Z,17.27
2017-03-27T16:22:16.370Z,17.20
2017-03-27T16:25:10.827Z,17.16
2017-03-27T16:28:05.081Z,17.08
2017-03-27T16:30:59.398Z,17.02
2017-03-27T16:33:53.849Z,16.93
2017-03-27T16:39:42.707Z,16.76
2017-03-27T16:42:37.138Z,16.69
2017-03-27T16:45:31.481Z,16.60
2017-03-27T16:48:25.870Z,16.50
2017-03-27T16:51:20.330Z,16.42
2017-03-27T16:54:14.717Z,16.32
2017-03-27T17:00:03.350Z,16.12
2017-03-27T17:02:57.718Z,15.98
2017-03-27T17:05:52.035Z,15.86
2017-03-27T17:08:46.340Z,15.75
2017-03-27T17:11:40.621Z,15.66
2017-03-27T17:14:35.033Z,15.56
2017-03-27T17:17:29.238Z,15.44
2017-03-27T17:20:23.632Z,15.33
2017-03-27T17:23:17.845Z,15.20
2017-03-27T17:26:12.248Z,15.08
2017-03-27T17:29:06.515Z,14.98
2017-03-27T17:32:00.911Z,14.89
2017-03-27T17:34:55.216Z,14.79
2017-03-27T17:37:49.491Z,14.69
2017-03-27T17:40:43.816Z,14.58
2017-03-27T17:43:38.058Z,14.51
2017-03-27T17:46:32.356Z,14.44
2017-03-27T17:49:26.649Z,14.35
2017-03-27T17:52:20.928Z,14.30
2017-03-27T17:58:09.367Z,14.13
2017-03-27T18:01:03.624Z,14.06
2017-03-27T18:03:57.846Z,13.97
2017-03-27T18:06:52.268Z,13.89
2017-03-27T18:09:46.571Z,13.81
2017-03-27T18:12:41.029Z,13.70
2017-03-27T18:15:35.412Z,13.63
2017-03-27T18:18:29.870Z,13.56
2017-03-27T18:21:24.251Z,13.50
2017-03-27T18:24:18.575Z,13.44
2017-03-27T18:27:13.056Z,13.36
2017-03-27T18:30:07.421Z,13.26
2017-03-27T18:33:01.825Z,13.18
2017-03-27T18:35:56.137Z,13.09
2017-03-27T18:38:50.450Z,12.98
2017-03-27T18:41:44.840Z,12.87
2017-03-27T18:44:39.212Z,12.78
2017-03-27T18:47:33.555Z,12.72
2017-03-27T18:50:27.904Z,12.64
2017-03-27T18:53:22.374Z,12.55
2017-03-27T18:59:11.013Z,12.35
2017-03-27T19:02:05.242Z,12.30
2017-03-27T19:04:59.592Z,12.27
2017-03-27T19:07:54.056Z,12.21
2017-03-27T19:10:48.180Z,12.13
2017-03-27T19:13:42.351Z,12.06
2017-03-27T19:16:36.674Z,11.96
2017-03-27T19:19:31.054Z,11.85
2017-03-27T19:22:25.356Z,11.76
2017-03-27T19:25:19.730Z,11.66
2017-03-27T19:28:14.038Z,11.58
2017-03-27T19:31:08.372Z,11.51
2017-03-27T19:34:02.688Z,11.44
2017-03-27T19:36:57.022Z,11.37
2017-03-27T19:39:51.379Z,11.30
2017-03-27T19:42:45.662Z,11.24
2017-03-27T19:45:39.985Z,11.16
2017-03-27T19:48:34.199Z,11.10
2017-03-27T19:51:28.471Z,11.03
2017-03-27T19:54:22.780Z,10.99
2017-03-27T19:57:16.895Z,10.93
2017-03-27T20:00:11.214Z,10.87
2017-03-27T20:03:05.548Z,10.82
2017-03-27T20:05:59.831Z,10.77
2017-03-27T20:08:54.210Z,10.71
2017-03-27T20:11:48.479Z,10.67
2017-03-27T20:14:42.813Z,10.60
2017-03-27T20:17:37.189Z,10.53
2017-03-27T20:23:25.657Z,10.42
2017-03-27T20:26:19.880Z,10.37
2017-03-27T20:29:14.069Z,10.33
2017-03-27T20:32:08.273Z,10.29
2017-03-27T20:35:02.570Z,10.24
2017-03-27T20:37:56.668Z,10.22
2017-03-27T20:40:50.941Z,10.21
2017-03-27T20:43:45.144Z,10.18
2017-03-27T20:49:33.590Z,10.10
2017-03-27T20:52:27.753Z,10.06
2017-03-27T20:55:21.997Z,10.03
2017-03-27T20:58:16.209Z,9.98
2017-03-27T21:01:10.513Z,9.95
2017-03-27T21:06:59.033Z,9.91
2017-03-27T21:09:53.340Z,9.87
2017-03-27T21:12:47.663Z,9.83
2017-03-27T21:15:41.956Z,9.79
2017-03-27T21:18:36.129Z,9.72
2017-03-27T21:21:30.522Z,9.68
2017-03-27T21:24:24.836Z,9.65
2017-03-27T21:27:19.124Z,9.67
2017-03-27T21:30:13.539Z,9.66
2017-03-27T21:33:07.726Z,9.64
2017-03-27T21:36:01.923Z,9.62
2017-03-27T21:38:56.232Z,9.61
2017-03-27T21:41:50.562Z,9.60
2017-03-27T21:44:44.796Z,9.59
2017-03-27T21:47:39.088Z,9.61
2017-03-27T21:50:33.333Z,9.63
2017-03-27T21:53:27.658Z,9.64
2017-03-27T21:56:21.860Z,9.60
2017-03-27T21:59:16.096Z,9.55
2017-03-27T22:02:10.445Z,9.52
2017-03-27T22:05:04.678Z,9.49
2017-03-27T22:07:58.972Z,9.48
2017-03-27T22:10:53.209Z,9.46
2017-03-27T22:16:41.823Z,9.43
2017-03-27T22:19:36.109Z,9.41
2017-03-27T22:22:30.326Z,9.38
2017-03-27T22:25:24.530Z,9.35
2017-03-27T22:28:18.846Z,9.31
2017-03-27T22:31:13.045Z,9.25
2017-03-27T22:34:07.340Z,9.21
2017-03-27T22:37:01.573Z,9.17
2017-03-27T22:39:55.883Z,9.14
2017-03-27T22:42:50.099Z,9.08
2017-03-27T22:48:38.611Z,8.99
2017-03-27T22:51:32.917Z,8.95
2017-03-27T22:54:27.015Z,8.94
2017-03-27T22:57:21.061Z,8.92
2017-03-27T23:03:09.504Z,8.88
2017-03-27T23:06:03.799Z,8.85
2017-03-27T23:11:52.243Z,8.77
2017-03-27T23:14:46.379Z,8.74
2017-03-27T23:17:40.874Z,8.73
2017-03-27T23:20:35.105Z,8.76
2017-03-27T23:23:29.289Z,8.74
2017-03-27T23:26:23.452Z,8.70
2017-03-27T23:29:17.673Z,8.68
2017-03-27T23:35:06.055Z,8.62
2017-03-27T23:38:00.217Z,8.59
2017-03-27T23:40:54.400Z,8.57
2017-03-27T23:43:48.484Z,8.56
2017-03-27T23:46:42.709Z,8.54
2017-03-27T23:49:36.783Z,8.52
2017-03-27T23:52:30.911Z,8.50
2017-03-27T23:58:19.134Z,8.47
